Zamosc, Poland
Current Conditions -  °F | °C
As of 1:30 AM on Thursday 23 Oct 2014 (Local Time) from EPLB Reporting Station
Light Rain Light Rain  
Wind Chill: 36°   Ceiling: 600
Heat Index: 45°   Visibility: 5mi
Dew Point: 43°   Wind: 21mph
Humidity: 93%   Direction: 50°NE
Pressure: 29.77"   Gusts: NA
Location:  50.73°N, 23.26°E
Report Text: EPLB 222330Z 05018KT 8000 -RA OVC006 07/06 Q1008
Loading
Personal Weather Stations






























Interactive Weather Map
Tropical Storm Tracking
New forecast layout! Learn more

10-Day Weather Forecast

Advertisements
Track Severe Weather on mobile